Fresno, CA (93650)

6:49 AM PDT on April 30, 2017 (GMT -0700)
University Portals | | Change Station

Elev 338 ft 36.82 °N, 119.76 °W | Updated 14 seconds ago

Clear
Clear
52.0 °F
Feels Like 52.0 °F
N
0.0
Wind Variable Wind from NNW
Gusts 0.0 mph

Today
High -- | Low -- °F
--% Chance of Precip.
Yesterday
High -- | Low -- °F
Precip. -- in
Pressure 30.11 in
Visibility 10.0 miles
Clouds Few 10000 ft
Few 13000 ft
Dew Point 4 °F
Humidity 14%
Rainfall 0.00 in
Snow Depth Not available.
6:05 AM 7:47 PM
Waxing Crescent, 23% visible
METAR KFAT 301253Z 00000KT 10SM FEW100 FEW130 13/07 A3011 RMK AO2 SLP195 T01330072
Pressure 30.11 in
Visibility 10.0 miles
Clouds Few 10000 ft
Few 13000 ft
Dew Point 4 °F
Humidity 14%
Rainfall 0.00 in
Snow Depth Not available.
6:05 AM 7:47 PM
Waxing Crescent, 23% visible
METAR KFAT 301253Z 00000KT 10SM FEW100 FEW130 13/07 A3011 RMK AO2 SLP195 T01330072

Get Severe Weather Alerts

Thanks for signing up!

Be on the lookout for a verification email in your inbox.

You'll start receiving the daily forecast at 8 AM.

×

10-Day Weather Forecast

Almanac

Astronomy

Apr. 30, 2017 Rise Set
Actual Time
Civil Twilight
Nautical Twilight
Astronomical Twilight
Moon
Length of Visible Light
Length of Day
Tomorrow will be .
, % of the Moon is Illuminated

Today's Extremes

State Highs State Lows

Community

WunderPhotos

WunderBlog® & News

Nearby

Air Quality

  Air Quality AQ Index Pollutant
Not available.

Snow Depth

Station Depth Elevation

Earthquake Activity

City Distance Mag. Time & Date
Minimum magnitude displayed is 2.5.

Coastal Water Temperatures

Place Temperature

Stations

Nearby Weather Stations

Station Location Temp. Windchill Dew Point Humidity Wind Precip. Elev Updated Type
                   

Watches & Warnings

There are currently no watches in effect.